createdAt,value
2018-03-31T00:00:55.813Z,4.00
2018-03-31T00:01:55.829Z,4.00
2018-03-31T00:02:55.849Z,4.00
2018-03-31T00:03:55.864Z,4.00
2018-03-31T00:04:55.882Z,4.00
2018-03-31T00:05:55.899Z,4.00
2018-03-31T00:06:55.918Z,4.00
2018-03-31T00:07:55.937Z,4.00
2018-03-31T00:08:55.952Z,4.00
2018-03-31T00:09:55.971Z,4.00
2018-03-31T00:10:55.989Z,4.00
2018-03-31T00:11:56.006Z,4.00
2018-03-31T00:12:56.024Z,4.00
2018-03-31T00:13:56.046Z,4.00
2018-03-31T00:14:56.061Z,4.00
2018-03-31T00:15:56.078Z,4.00
2018-03-31T00:16:56.096Z,4.00
2018-03-31T00:17:56.114Z,4.00
2018-03-31T00:18:56.134Z,4.00
2018-03-31T00:19:56.151Z,4.00
2018-03-31T00:20:56.167Z,4.00
2018-03-31T00:21:56.185Z,4.00
2018-03-31T00:22:56.204Z,4.00
2018-03-31T00:23:56.222Z,4.00
2018-03-31T00:24:56.239Z,4.00
2018-03-31T00:25:56.257Z,4.00
2018-03-31T00:26:56.275Z,4.00
2018-03-31T00:27:56.293Z,4.00
2018-03-31T00:28:56.310Z,4.00
2018-03-31T00:29:56.328Z,4.00
2018-03-31T00:30:56.346Z,4.00
2018-03-31T00:31:56.364Z,4.00
2018-03-31T00:32:56.380Z,4.00
2018-03-31T00:33:56.400Z,4.00
2018-03-31T00:34:56.419Z,4.00
2018-03-31T00:35:56.436Z,4.00
2018-03-31T00:36:56.453Z,4.00
2018-03-31T00:37:56.471Z,4.00
2018-03-31T00:38:56.502Z,4.00
2018-03-31T00:39:56.508Z,4.00
2018-03-31T00:40:56.570Z,4.00
2018-03-31T00:41:56.544Z,4.00
2018-03-31T00:42:56.561Z,4.00
2018-03-31T00:43:56.579Z,4.00
2018-03-31T00:44:56.595Z,4.00
2018-03-31T00:45:56.614Z,4.00
2018-03-31T00:46:56.633Z,4.00
2018-03-31T00:47:56.650Z,4.00
2018-03-31T00:48:56.668Z,4.00
2018-03-31T00:49:56.685Z,4.00
2018-03-31T00:50:56.704Z,4.00
2018-03-31T00:51:56.768Z,4.00
2018-03-31T00:52:56.739Z,4.00
2018-03-31T00:53:56.758Z,4.00
2018-03-31T00:54:56.777Z,4.00
2018-03-31T00:55:56.794Z,4.00
2018-03-31T00:56:56.818Z,4.00
2018-03-31T00:57:56.830Z,4.00
2018-03-31T00:58:56.846Z,4.00
2018-03-31T00:59:56.865Z,4.00
2018-03-31T01:00:56.881Z,4.00
2018-03-31T01:01:56.900Z,4.00
2018-03-31T01:02:56.918Z,4.00
2018-03-31T01:03:56.935Z,4.00
2018-03-31T01:04:56.953Z,4.00
2018-03-31T01:05:56.977Z,4.00
2018-03-31T01:06:57.002Z,4.00
2018-03-31T01:07:57.007Z,4.00
2018-03-31T01:08:57.024Z,4.00
2018-03-31T01:09:57.042Z,4.00
2018-03-31T01:10:57.072Z,4.00
2018-03-31T01:11:57.078Z,4.00
2018-03-31T01:12:57.094Z,4.00
2018-03-31T01:13:57.114Z,4.00
2018-03-31T01:14:57.131Z,4.00
2018-03-31T01:15:57.155Z,4.00
2018-03-31T01:16:57.166Z,4.00
2018-03-31T01:17:57.184Z,4.00
2018-03-31T01:18:57.202Z,4.00
2018-03-31T01:19:57.222Z,4.00
2018-03-31T01:20:57.237Z,4.00
2018-03-31T01:21:57.259Z,4.00
2018-03-31T01:22:57.272Z,4.00
2018-03-31T01:23:57.297Z,4.00
2018-03-31T01:24:57.308Z,4.00
2018-03-31T01:25:57.326Z,4.00
2018-03-31T01:26:57.344Z,4.00
2018-03-31T01:27:57.367Z,4.00
2018-03-31T01:28:57.379Z,4.00
2018-03-31T01:29:57.396Z,4.00
2018-03-31T01:30:57.414Z,4.00
2018-03-31T01:31:57.434Z,4.00
2018-03-31T01:32:57.449Z,4.00
2018-03-31T01:33:57.467Z,4.00
2018-03-31T01:34:57.485Z,4.00
2018-03-31T01:35:57.503Z,4.00
2018-03-31T01:36:57.521Z,4.00
2018-03-31T01:37:57.538Z,4.00
2018-03-31T01:38:57.556Z,4.00
2018-03-31T01:39:57.574Z,4.00
2018-03-31T01:40:57.591Z,4.00
2018-03-31T01:41:57.609Z,4.00
2018-03-31T01:42:57.626Z,4.00
2018-03-31T01:43:57.644Z,4.00
2018-03-31T01:44:57.663Z,4.00
2018-03-31T01:45:57.679Z,4.00
2018-03-31T01:46:57.697Z,4.00
2018-03-31T01:47:57.714Z,4.00
2018-03-31T01:48:57.732Z,4.00
2018-03-31T01:49:57.749Z,4.00
2018-03-31T01:50:57.766Z,4.00
2018-03-31T01:51:57.784Z,4.00
2018-03-31T01:52:57.801Z,4.00
2018-03-31T01:53:57.819Z,4.00
2018-03-31T01:54:57.837Z,4.00
2018-03-31T01:55:57.854Z,4.00
2018-03-31T01:56:57.871Z,4.00
2018-03-31T01:57:57.888Z,4.00
2018-03-31T01:58:57.906Z,4.00
2018-03-31T01:59:57.924Z,4.00
2018-03-31T02:00:57.941Z,4.00
2018-03-31T02:01:57.961Z,4.00
2018-03-31T02:02:57.977Z,4.00
2018-03-31T02:03:57.994Z,4.00
2018-03-31T02:04:58.012Z,4.00
2018-03-31T02:05:58.029Z,4.00
2018-03-31T02:06:58.046Z,4.00
2018-03-31T02:07:58.064Z,4.00
2018-03-31T02:08:58.086Z,4.00
2018-03-31T02:09:58.099Z,4.00
2018-03-31T02:10:58.116Z,4.00
2018-03-31T02:11:58.134Z,4.00
2018-03-31T02:12:58.152Z,4.00
2018-03-31T02:13:58.168Z,4.00
2018-03-31T02:14:58.186Z,4.00
2018-03-31T02:15:58.203Z,4.00
2018-03-31T02:16:58.221Z,4.00
2018-03-31T02:17:58.239Z,4.00
2018-03-31T02:18:58.259Z,4.00
2018-03-31T02:19:58.274Z,4.00
2018-03-31T02:20:58.292Z,4.00
2018-03-31T02:21:58.308Z,4.00
2018-03-31T02:22:58.330Z,4.00
2018-03-31T02:23:58.348Z,4.00
2018-03-31T02:24:58.361Z,4.00
2018-03-31T02:25:58.381Z,4.00
2018-03-31T02:26:58.399Z,4.00
2018-03-31T02:27:58.413Z,4.00
2018-03-31T02:28:58.430Z,4.00
2018-03-31T02:29:58.447Z,4.00
2018-03-31T02:30:58.468Z,4.00
2018-03-31T02:31:58.488Z,4.00
2018-03-31T02:32:58.500Z,4.00
2018-03-31T02:33:58.520Z,4.00
2018-03-31T02:34:58.538Z,4.00
2018-03-31T02:35:58.557Z,4.00
2018-03-31T02:36:58.571Z,4.00
2018-03-31T02:37:58.588Z,4.00
2018-03-31T02:38:58.604Z,4.00
2018-03-31T02:39:58.622Z,4.00
2018-03-31T02:40:58.638Z,4.00
2018-03-31T02:41:58.656Z,4.00
2018-03-31T02:42:58.678Z,4.00
2018-03-31T02:43:58.693Z,4.00
2018-03-31T02:44:58.711Z,4.00
2018-03-31T02:45:58.726Z,4.00
2018-03-31T02:46:58.743Z,4.00
2018-03-31T02:47:58.761Z,4.00
2018-03-31T02:48:58.777Z,4.00
2018-03-31T02:49:58.794Z,4.00
2018-03-31T02:50:58.813Z,4.00
2018-03-31T02:51:58.830Z,4.00
2018-03-31T02:52:58.846Z,4.00
2018-03-31T02:53:58.864Z,4.00
2018-03-31T02:54:58.883Z,4.00
2018-03-31T02:55:58.900Z,4.00
2018-03-31T02:56:58.915Z,4.00
2018-03-31T02:57:58.935Z,4.00
2018-03-31T02:58:58.951Z,4.00
2018-03-31T02:59:58.967Z,4.00
2018-03-31T03:00:58.984Z,4.00
2018-03-31T03:01:59.002Z,4.00
2018-03-31T03:02:59.022Z,4.00
2018-03-31T03:03:59.048Z,4.00
2018-03-31T03:04:59.055Z,4.00
2018-03-31T03:05:59.072Z,4.00
2018-03-31T03:06:59.089Z,4.00
2018-03-31T03:07:59.107Z,4.00
2018-03-31T03:08:59.124Z,4.00
2018-03-31T03:09:59.141Z,4.00
2018-03-31T03:10:59.161Z,4.00
2018-03-31T03:11:59.176Z,4.00
2018-03-31T03:12:59.192Z,4.00
2018-03-31T03:13:59.210Z,4.00
2018-03-31T03:14:59.228Z,4.00
2018-03-31T03:15:59.245Z,4.00
2018-03-31T03:16:59.262Z,4.00
2018-03-31T03:17:59.280Z,4.00
2018-03-31T03:18:59.297Z,4.00
2018-03-31T03:19:59.315Z,4.00
2018-03-31T03:20:59.331Z,4.00
2018-03-31T03:21:59.350Z,4.00
2018-03-31T03:22:59.366Z,4.00
2018-03-31T03:23:59.384Z,4.00
2018-03-31T03:24:59.400Z,4.00
2018-03-31T03:25:59.419Z,4.00
2018-03-31T03:26:59.436Z,4.00
2018-03-31T03:27:59.453Z,4.00
2018-03-31T03:28:59.469Z,4.00
2018-03-31T03:29:59.489Z,4.00
2018-03-31T03:30:59.505Z,4.00
2018-03-31T03:31:59.521Z,4.00
2018-03-31T03:32:59.544Z,4.00
2018-03-31T03:33:59.556Z,4.00
2018-03-31T03:34:59.579Z,4.00
2018-03-31T03:35:59.591Z,4.00
2018-03-31T03:36:59.607Z,4.00
2018-03-31T03:37:59.625Z,4.00
2018-03-31T03:38:59.643Z,4.00
2018-03-31T03:39:59.660Z,4.00
2018-03-31T03:40:59.676Z,4.00
2018-03-31T03:41:59.694Z,4.00
2018-03-31T03:42:59.712Z,4.00
2018-03-31T03:43:59.729Z,4.00
2018-03-31T03:44:59.745Z,4.00
2018-03-31T03:45:59.763Z,4.00
2018-03-31T03:46:59.783Z,4.00
2018-03-31T03:47:59.798Z,4.00
2018-03-31T03:48:59.815Z,4.00
2018-03-31T03:49:59.832Z,4.00
2018-03-31T03:50:59.849Z,4.00
2018-03-31T03:51:59.869Z,4.00
2018-03-31T03:52:59.889Z,4.00
2018-03-31T03:53:59.902Z,4.00
2018-03-31T03:54:59.919Z,4.00
2018-03-31T03:55:59.937Z,4.00
2018-03-31T03:56:59.955Z,4.00
2018-03-31T03:57:59.972Z,4.00
2018-03-31T03:58:59.989Z,4.00
2018-03-31T04:00:00.007Z,4.00
2018-03-31T04:01:00.024Z,4.00
2018-03-31T04:02:00.040Z,4.00
2018-03-31T04:03:00.059Z,4.00
2018-03-31T04:04:00.077Z,4.00
2018-03-31T04:05:00.095Z,4.00
2018-03-31T04:06:00.111Z,4.00
2018-03-31T04:07:00.134Z,4.00
2018-03-31T04:08:00.146Z,4.00
2018-03-31T04:09:00.164Z,4.00
2018-03-31T04:10:00.181Z,4.00
2018-03-31T04:11:00.200Z,4.00
2018-03-31T04:12:00.217Z,4.00
2018-03-31T04:13:00.234Z,4.00
2018-03-31T04:14:00.251Z,4.00
2018-03-31T04:15:00.270Z,4.00
2018-03-31T04:16:00.286Z,4.00
2018-03-31T04:17:00.303Z,4.00
2018-03-31T04:18:00.321Z,4.00
2018-03-31T04:19:00.339Z,4.00
2018-03-31T04:20:00.357Z,4.00
2018-03-31T04:21:00.376Z,4.00
2018-03-31T04:22:00.411Z,4.00
2018-03-31T04:23:00.409Z,4.00
2018-03-31T04:24:00.427Z,4.00
2018-03-31T04:25:00.444Z,4.00
2018-03-31T04:26:00.462Z,4.00
2018-03-31T04:27:00.479Z,4.00
2018-03-31T04:28:00.502Z,4.00
2018-03-31T04:29:00.514Z,4.00
2018-03-31T04:30:00.532Z,4.00
2018-03-31T04:31:00.549Z,4.00
2018-03-31T04:32:00.566Z,4.00
2018-03-31T04:33:00.581Z,4.00
2018-03-31T04:34:00.601Z,4.00
2018-03-31T04:35:00.619Z,4.00
2018-03-31T04:36:00.636Z,4.00
2018-03-31T04:37:00.652Z,4.00
2018-03-31T04:38:00.669Z,8.00
2018-03-31T04:39:00.688Z,8.00
2018-03-31T04:40:00.706Z,8.00
2018-03-31T04:41:00.721Z,4.00
2018-03-31T04:42:00.738Z,4.00
2018-03-31T04:43:00.757Z,8.00
2018-03-31T04:44:00.773Z,8.00
2018-03-31T04:45:00.791Z,8.00
2018-03-31T04:46:00.808Z,8.00
2018-03-31T04:47:00.825Z,12.00
2018-03-31T04:48:00.842Z,12.00
2018-03-31T04:49:00.859Z,12.00
2018-03-31T04:50:00.877Z,16.00
2018-03-31T04:51:00.894Z,16.00
2018-03-31T04:52:00.911Z,20.00
2018-03-31T04:53:00.927Z,16.00
2018-03-31T04:54:00.946Z,16.00
2018-03-31T04:55:00.962Z,20.00
2018-03-31T04:56:00.981Z,24.00
2018-03-31T04:57:00.998Z,24.00
2018-03-31T04:58:01.016Z,32.00
2018-03-31T04:59:01.032Z,32.00
2018-03-31T05:00:01.048Z,40.00
2018-03-31T05:01:01.064Z,44.00
2018-03-31T05:02:01.088Z,52.00
2018-03-31T05:03:01.102Z,56.00
2018-03-31T05:04:01.116Z,64.00
2018-03-31T05:05:01.133Z,68.00
2018-03-31T05:06:01.158Z,76.00
2018-03-31T05:07:01.172Z,84.00
2018-03-31T05:08:01.185Z,88.00
2018-03-31T05:09:01.202Z,96.00
2018-03-31T05:10:01.220Z,104.00
2018-03-31T05:11:01.236Z,112.00
2018-03-31T05:12:01.287Z,120.00
2018-03-31T05:13:01.312Z,136.00
2018-03-31T05:14:01.286Z,144.00
2018-03-31T05:15:01.304Z,156.00
2018-03-31T05:16:01.322Z,168.00
2018-03-31T05:17:01.337Z,180.00
2018-03-31T05:18:01.354Z,192.00
2018-03-31T05:19:01.372Z,208.00
2018-03-31T05:20:01.390Z,220.00
2018-03-31T05:21:01.404Z,236.00
2018-03-31T05:22:01.424Z,252.00
2018-03-31T05:23:01.442Z,268.00
2018-03-31T05:24:01.457Z,288.00
2018-03-31T05:25:01.473Z,308.00
2018-03-31T05:26:01.493Z,328.00
2018-03-31T05:27:01.507Z,348.00
2018-03-31T05:28:01.524Z,372.00
2018-03-31T05:29:01.540Z,392.00
2018-03-31T05:30:01.557Z,416.00
2018-03-31T05:31:01.575Z,436.00
2018-03-31T05:32:01.592Z,456.00
2018-03-31T05:33:01.608Z,480.00
2018-03-31T05:34:01.625Z,500.00
2018-03-31T05:35:01.642Z,524.00
2018-03-31T05:36:01.660Z,552.00
2018-03-31T05:37:01.676Z,576.00
2018-03-31T05:38:01.692Z,604.00
2018-03-31T05:39:01.710Z,628.00
2018-03-31T05:40:01.728Z,660.00
2018-03-31T05:41:01.743Z,688.00
2018-03-31T05:42:01.761Z,720.00
2018-03-31T05:43:01.779Z,752.00
2018-03-31T05:44:01.794Z,784.00
2018-03-31T05:45:01.812Z,820.00
2018-03-31T05:46:01.828Z,856.00
2018-03-31T05:47:01.845Z,888.00
2018-03-31T05:48:01.862Z,920.00
2018-03-31T05:49:01.881Z,956.00
2018-03-31T05:50:01.895Z,992.00
2018-03-31T05:51:01.912Z,1028.00
2018-03-31T05:52:01.938Z,1072.00
2018-03-31T05:53:01.946Z,1104.00
2018-03-31T05:54:01.963Z,1140.00
2018-03-31T05:55:01.981Z,1176.00
2018-03-31T05:56:01.998Z,1204.00
2018-03-31T05:57:02.014Z,1236.00
2018-03-31T05:58:02.031Z,1260.00
2018-03-31T05:59:02.051Z,1288.00
2018-03-31T06:00:02.071Z,1316.00
2018-03-31T06:01:02.082Z,1348.00
2018-03-31T06:02:02.101Z,1380.00
2018-03-31T06:03:02.117Z,1424.00
2018-03-31T06:04:02.134Z,1472.00
2018-03-31T06:05:02.152Z,1512.00
2018-03-31T06:06:02.168Z,1556.00
2018-03-31T06:07:02.186Z,1616.00
2018-03-31T06:08:02.203Z,1664.00
2018-03-31T06:09:02.220Z,1704.00
2018-03-31T06:10:02.236Z,1748.00
2018-03-31T06:11:02.255Z,1804.00
2018-03-31T06:12:02.272Z,1844.00
2018-03-31T06:13:02.288Z,1884.00
2018-03-31T06:14:02.306Z,1932.00
2018-03-31T06:15:02.368Z,1988.00
2018-03-31T06:16:02.341Z,2024.00
2018-03-31T06:17:02.357Z,2052.00
2018-03-31T06:18:02.373Z,2088.00
2018-03-31T06:19:02.399Z,2108.00
2018-03-31T06:20:02.409Z,2132.00
2018-03-31T06:21:02.428Z,2136.00
2018-03-31T06:22:02.444Z,2148.00
2018-03-31T06:23:02.461Z,2172.00
2018-03-31T06:24:02.479Z,2208.00
2018-03-31T06:25:02.496Z,2252.00
2018-03-31T06:26:02.514Z,2296.00
2018-03-31T06:27:02.532Z,2324.00
2018-03-31T06:28:02.552Z,2388.00
2018-03-31T06:29:02.565Z,2432.00
2018-03-31T06:30:02.584Z,2492.00
2018-03-31T06:31:02.600Z,2548.00
2018-03-31T06:32:02.621Z,2604.00
2018-03-31T06:33:02.636Z,2644.00
2018-03-31T06:34:02.653Z,2700.00
2018-03-31T06:35:02.669Z,2756.00
2018-03-31T06:36:02.689Z,2816.00
2018-03-31T06:37:02.705Z,2868.00
2018-03-31T06:38:02.723Z,2936.00
2018-03-31T06:39:02.747Z,2984.00
2018-03-31T06:40:02.759Z,3016.00
2018-03-31T06:41:02.776Z,3020.00
2018-03-31T06:42:02.794Z,3060.00
2018-03-31T06:43:02.811Z,3064.00
2018-03-31T06:44:02.830Z,3108.00
2018-03-31T06:45:02.846Z,3104.00
2018-03-31T06:46:02.862Z,3176.00
2018-03-31T06:47:02.881Z,3264.00
2018-03-31T06:48:02.899Z,3248.00
2018-03-31T06:49:02.916Z,3212.00
2018-03-31T06:50:02.994Z,3224.00
2018-03-31T06:51:02.952Z,3112.00
2018-03-31T06:52:02.970Z,2900.00
2018-03-31T06:53:02.987Z,2724.00
2018-03-31T06:54:03.007Z,2768.00
2018-03-31T06:55:03.023Z,2900.00
2018-03-31T06:56:03.041Z,2972.00
2018-03-31T06:57:03.056Z,3044.00
2018-03-31T06:58:03.075Z,3172.00
2018-03-31T06:59:03.093Z,3156.00
2018-03-31T07:00:03.112Z,3224.00
2018-03-31T07:01:03.128Z,3244.00
2018-03-31T07:02:03.145Z,3308.00
2018-03-31T07:03:03.165Z,3336.00
2018-03-31T07:04:03.182Z,3344.00
2018-03-31T07:05:03.199Z,3344.00
2018-03-31T07:06:03.217Z,3336.00
2018-03-31T07:07:03.238Z,3276.00
2018-03-31T07:08:03.253Z,3264.00
2018-03-31T07:09:03.270Z,3176.00
2018-03-31T07:10:03.288Z,3040.00
2018-03-31T07:11:03.307Z,2984.00
2018-03-31T07:12:03.325Z,2652.00
2018-03-31T07:13:03.342Z,2668.00
2018-03-31T07:14:03.361Z,2756.00
2018-03-31T07:15:03.380Z,3060.00
2018-03-31T07:16:03.396Z,3124.00
2018-03-31T07:17:03.413Z,3088.00
2018-03-31T07:18:03.431Z,3212.00
2018-03-31T07:19:03.449Z,3456.00
2018-03-31T07:20:03.468Z,3512.00
2018-03-31T07:21:03.485Z,3620.00
2018-03-31T07:22:03.503Z,3740.00
2018-03-31T07:23:03.521Z,3772.00
2018-03-31T07:24:03.540Z,3684.00
2018-03-31T07:25:03.558Z,3552.00
2018-03-31T07:26:03.575Z,3588.00
2018-03-31T07:27:03.595Z,3612.00
2018-03-31T07:28:03.612Z,3628.00
2018-03-31T07:29:03.630Z,3696.00
2018-03-31T07:30:03.648Z,3656.00
2018-03-31T07:31:03.666Z,3772.00
2018-03-31T07:32:03.684Z,3732.00
2018-03-31T07:33:03.701Z,3880.00
2018-03-31T07:34:03.720Z,3992.00
2018-03-31T07:35:03.739Z,3984.00
2018-03-31T07:36:03.757Z,3984.00
2018-03-31T07:37:03.779Z,3964.00
2018-03-31T07:38:03.793Z,3940.00
2018-03-31T07:39:03.811Z,3948.00
2018-03-31T07:40:03.829Z,3984.00
2018-03-31T07:41:03.848Z,4036.00
2018-03-31T07:42:03.865Z,4048.00
2018-03-31T07:43:03.883Z,4124.00
2018-03-31T07:44:03.902Z,4088.00
2018-03-31T07:45:03.920Z,4112.00
2018-03-31T07:46:03.963Z,4172.00
2018-03-31T07:47:03.955Z,4220.00
2018-03-31T07:48:03.979Z,4124.00
2018-03-31T07:49:03.992Z,4192.00
2018-03-31T07:50:04.009Z,4288.00
2018-03-31T07:51:04.028Z,4356.00
2018-03-31T07:52:04.111Z,4328.00
2018-03-31T07:53:04.063Z,4364.00
2018-03-31T07:54:04.083Z,4380.00
2018-03-31T07:55:04.101Z,4388.00
2018-03-31T07:56:04.118Z,4408.00
2018-03-31T07:57:04.135Z,4372.00
2018-03-31T07:58:04.153Z,4464.00
2018-03-31T07:59:04.174Z,4440.00
2018-03-31T08:00:04.190Z,4332.00
2018-03-31T08:01:04.208Z,4520.00
2018-03-31T08:02:04.224Z,4572.00
2018-03-31T08:03:04.245Z,4392.00
2018-03-31T08:04:04.262Z,4364.00
2018-03-31T08:05:04.280Z,4580.00
2018-03-31T08:06:04.298Z,4552.00
2018-03-31T08:07:04.316Z,4668.00
2018-03-31T08:08:04.395Z,4676.00
2018-03-31T08:09:04.352Z,4636.00
2018-03-31T08:10:04.372Z,4616.00
2018-03-31T08:11:04.390Z,4652.00
2018-03-31T08:12:04.409Z,4900.00
2018-03-31T08:13:04.425Z,5092.00
2018-03-31T08:14:04.444Z,5004.00
2018-03-31T08:15:04.463Z,4872.00
2018-03-31T08:16:04.482Z,4900.00
2018-03-31T08:17:04.500Z,4828.00
2018-03-31T08:18:04.519Z,4600.00
2018-03-31T08:19:04.537Z,4636.00
2018-03-31T08:20:04.556Z,4624.00
2018-03-31T08:21:04.574Z,4556.00
2018-03-31T08:22:04.596Z,4424.00
2018-03-31T08:23:04.611Z,4576.00
2018-03-31T08:24:04.630Z,4584.00
2018-03-31T08:25:04.647Z,4544.00
2018-03-31T08:26:04.666Z,4656.00
2018-03-31T08:27:04.686Z,4772.00
2018-03-31T08:28:04.704Z,4816.00
2018-03-31T08:29:04.722Z,4676.00
2018-03-31T08:30:04.740Z,4924.00
2018-03-31T08:31:04.759Z,4804.00
2018-03-31T08:32:04.777Z,4824.00
2018-03-31T08:33:04.796Z,4948.00
2018-03-31T08:34:04.817Z,4852.00
2018-03-31T08:35:04.833Z,4740.00
2018-03-31T08:36:04.852Z,4720.00
2018-03-31T08:37:04.871Z,4712.00
2018-03-31T08:38:04.888Z,4832.00
2018-03-31T08:39:04.908Z,4924.00
2018-03-31T08:40:04.927Z,5072.00
2018-03-31T08:41:04.944Z,5060.00
2018-03-31T08:42:04.964Z,5276.00
2018-03-31T08:43:04.987Z,5288.00
2018-03-31T08:44:05.002Z,4612.00
2018-03-31T08:45:05.019Z,5304.00
2018-03-31T08:46:05.038Z,4968.00
2018-03-31T08:47:05.129Z,5320.00
2018-03-31T08:48:05.077Z,5116.00
2018-03-31T08:49:05.096Z,4600.00
2018-03-31T08:50:05.115Z,3804.00
2018-03-31T08:51:05.134Z,3628.00
2018-03-31T08:52:05.152Z,3616.00
2018-03-31T08:53:05.170Z,3680.00
2018-03-31T08:54:05.191Z,4248.00
2018-03-31T08:55:05.209Z,5372.00
2018-03-31T08:56:05.230Z,5220.00
2018-03-31T08:57:05.248Z,5596.00
2018-03-31T08:58:05.267Z,5624.00
2018-03-31T08:59:05.288Z,5584.00
2018-03-31T09:00:05.306Z,5584.00
2018-03-31T09:01:05.325Z,5568.00
2018-03-31T09:02:05.344Z,5436.00
2018-03-31T09:03:05.414Z,5500.00
2018-03-31T09:04:05.387Z,5600.00
2018-03-31T09:05:05.402Z,5544.00
2018-03-31T09:06:05.422Z,5440.00
2018-03-31T09:07:05.443Z,5364.00
2018-03-31T09:08:05.463Z,5200.00
2018-03-31T09:09:05.482Z,5416.00
2018-03-31T09:10:05.500Z,5748.00
2018-03-31T09:11:05.520Z,5820.00
2018-03-31T09:12:05.545Z,5484.00
2018-03-31T09:13:05.557Z,4236.00
2018-03-31T09:14:05.578Z,4840.00
2018-03-31T09:15:05.599Z,5452.00
2018-03-31T09:16:05.624Z,5996.00
2018-03-31T09:17:05.637Z,6240.00
2018-03-31T09:18:05.656Z,6192.00
2018-03-31T09:19:05.674Z,6008.00
2018-03-31T09:20:05.695Z,6224.00
2018-03-31T09:21:05.713Z,6196.00
2018-03-31T09:22:05.733Z,6224.00
2018-03-31T09:23:05.755Z,5968.00
2018-03-31T09:24:05.772Z,6028.00
2018-03-31T09:25:05.791Z,5900.00
2018-03-31T09:26:05.812Z,5936.00
2018-03-31T09:27:05.832Z,5780.00
2018-03-31T09:28:05.851Z,5720.00
2018-03-31T09:29:05.870Z,5676.00
2018-03-31T09:30:05.890Z,5616.00
2018-03-31T09:31:05.909Z,5752.00
2018-03-31T09:32:05.930Z,5944.00
2018-03-31T09:33:05.949Z,5992.00
2018-03-31T09:34:05.969Z,5596.00
2018-03-31T09:35:05.989Z,5012.00
2018-03-31T09:36:06.009Z,5816.00
2018-03-31T09:37:06.029Z,5988.00
2018-03-31T09:38:06.048Z,6012.00
2018-03-31T09:39:06.068Z,6060.00
2018-03-31T09:40:06.088Z,6816.00
2018-03-31T09:41:06.107Z,6608.00
2018-03-31T09:42:06.127Z,6740.00
2018-03-31T09:43:06.152Z,6864.00
2018-03-31T09:44:06.173Z,6852.00
2018-03-31T09:45:06.193Z,6780.00
2018-03-31T09:46:06.215Z,6840.00
2018-03-31T09:47:06.229Z,6816.00
2018-03-31T09:48:06.246Z,6804.00
2018-03-31T09:49:06.266Z,6836.00
2018-03-31T09:50:06.285Z,6884.00
2018-03-31T09:51:06.306Z,6656.00
2018-03-31T09:52:06.326Z,6368.00
2018-03-31T09:53:06.346Z,6296.00
2018-03-31T09:54:06.366Z,5920.00
2018-03-31T09:55:06.535Z,6136.00
2018-03-31T09:56:06.411Z,6224.00
2018-03-31T09:57:06.426Z,6116.00
2018-03-31T09:58:06.445Z,6216.00
2018-03-31T09:59:06.466Z,6196.00
2018-03-31T10:00:06.486Z,5520.00
2018-03-31T10:01:06.506Z,6360.00
2018-03-31T10:02:06.524Z,5088.00
2018-03-31T10:03:06.546Z,6436.00
2018-03-31T10:04:06.566Z,5048.00
2018-03-31T10:05:06.585Z,5976.00
2018-03-31T10:06:06.656Z,6184.00
2018-03-31T10:07:06.628Z,6512.00
2018-03-31T10:08:06.646Z,6392.00
2018-03-31T10:09:06.665Z,6240.00
2018-03-31T10:10:06.686Z,6284.00
2018-03-31T10:11:06.706Z,5752.00
2018-03-31T10:12:06.727Z,5600.00
2018-03-31T10:13:06.745Z,5992.00
2018-03-31T10:14:06.766Z,6248.00
2018-03-31T10:15:06.787Z,6100.00
2018-03-31T10:16:06.807Z,6160.00
2018-03-31T10:17:06.827Z,5892.00
2018-03-31T10:18:06.846Z,5212.00
2018-03-31T10:19:06.870Z,5388.00
2018-03-31T10:20:06.887Z,6100.00
2018-03-31T10:21:06.906Z,6200.00
2018-03-31T10:22:06.927Z,6240.00
2018-03-31T10:23:06.946Z,6316.00
2018-03-31T10:24:06.967Z,6780.00
2018-03-31T10:25:06.989Z,6668.00
2018-03-31T10:26:07.007Z,6676.00
2018-03-31T10:27:07.027Z,6332.00
2018-03-31T10:28:07.048Z,4716.00
2018-03-31T10:29:07.067Z,4832.00
2018-03-31T10:30:07.088Z,4532.00
2018-03-31T10:31:07.108Z,4492.00
2018-03-31T10:32:07.129Z,4496.00
2018-03-31T10:33:07.148Z,4512.00
2018-03-31T10:34:07.168Z,4624.00
2018-03-31T10:35:07.189Z,6936.00
2018-03-31T10:36:07.211Z,7020.00
2018-03-31T10:37:07.229Z,7060.00
2018-03-31T10:38:07.251Z,7096.00
2018-03-31T10:39:07.269Z,7024.00
2018-03-31T10:40:07.290Z,7076.00
2018-03-31T10:41:07.309Z,7004.00
2018-03-31T10:42:07.330Z,6996.00
2018-03-31T10:43:07.351Z,6704.00
2018-03-31T10:44:07.370Z,6728.00
2018-03-31T10:45:07.390Z,6808.00
2018-03-31T10:46:07.410Z,6812.00
2018-03-31T10:47:07.681Z,6888.00
2018-03-31T10:48:07.453Z,6344.00
2018-03-31T10:49:07.470Z,6396.00
2018-03-31T10:50:07.492Z,6356.00
2018-03-31T10:51:07.512Z,6420.00
2018-03-31T10:52:07.535Z,6616.00
2018-03-31T10:53:07.551Z,6760.00
2018-03-31T10:54:07.572Z,6764.00
2018-03-31T10:55:07.593Z,6844.00
2018-03-31T10:56:07.615Z,6960.00
2018-03-31T10:57:07.635Z,7052.00
2018-03-31T10:58:07.654Z,7164.00
2018-03-31T10:59:07.677Z,7056.00
2018-03-31T11:00:07.696Z,6876.00
2018-03-31T11:01:07.724Z,6660.00
2018-03-31T11:02:07.735Z,6668.00
2018-03-31T11:03:07.760Z,6612.00
2018-03-31T11:04:07.781Z,6604.00
2018-03-31T11:05:07.798Z,6584.00
2018-03-31T11:06:07.818Z,6676.00
2018-03-31T11:07:07.840Z,6692.00
2018-03-31T11:08:07.859Z,6612.00
2018-03-31T11:09:07.881Z,6516.00
2018-03-31T11:10:07.900Z,6384.00
2018-03-31T11:11:07.920Z,6320.00
2018-03-31T11:12:07.941Z,6204.00
2018-03-31T11:13:07.960Z,6312.00
2018-03-31T11:14:07.981Z,6356.00
2018-03-31T11:15:08.001Z,6444.00
2018-03-31T11:16:08.027Z,6456.00
2018-03-31T11:17:08.042Z,6464.00
2018-03-31T11:18:08.062Z,6656.00
2018-03-31T11:19:08.083Z,6896.00
2018-03-31T11:20:08.104Z,7024.00
2018-03-31T11:21:08.129Z,7304.00
2018-03-31T11:22:08.143Z,7492.00
2018-03-31T11:23:08.169Z,7524.00
2018-03-31T11:24:08.185Z,7528.00
2018-03-31T11:25:08.205Z,7488.00
2018-03-31T11:26:08.226Z,7472.00
2018-03-31T11:27:08.247Z,7428.00
2018-03-31T11:28:08.268Z,7500.00
2018-03-31T11:29:08.288Z,7760.00
2018-03-31T11:30:08.308Z,7936.00
2018-03-31T11:31:08.329Z,8224.00
2018-03-31T11:32:08.350Z,8204.00
2018-03-31T11:33:08.372Z,8324.00
2018-03-31T11:34:08.391Z,8220.00
2018-03-31T11:35:08.412Z,8088.00
2018-03-31T11:36:08.433Z,8100.00
2018-03-31T11:37:08.453Z,8144.00
2018-03-31T11:38:08.474Z,7952.00
2018-03-31T11:39:08.496Z,7640.00
2018-03-31T11:40:08.527Z,7248.00
2018-03-31T11:41:08.536Z,6956.00
2018-03-31T11:42:08.557Z,6944.00
2018-03-31T11:43:08.578Z,6760.00
2018-03-31T11:44:08.599Z,6652.00
2018-03-31T11:45:08.620Z,6284.00
2018-03-31T11:46:08.643Z,5992.00
2018-03-31T11:47:08.662Z,5764.00
2018-03-31T11:48:08.682Z,5704.00
2018-03-31T11:49:08.703Z,5472.00
2018-03-31T11:50:08.724Z,5708.00
2018-03-31T11:51:08.745Z,5916.00
2018-03-31T11:52:08.768Z,6136.00
2018-03-31T11:53:08.786Z,6100.00
2018-03-31T11:54:08.808Z,6144.00
2018-03-31T11:55:08.829Z,6220.00
2018-03-31T11:56:08.850Z,6200.00
2018-03-31T11:57:08.871Z,6244.00
2018-03-31T11:58:08.891Z,6148.00
2018-03-31T11:59:08.913Z,6168.00
2018-03-31T12:00:08.934Z,6104.00
2018-03-31T12:01:08.954Z,5388.00
2018-03-31T12:02:08.976Z,6108.00
2018-03-31T12:03:08.999Z,6352.00
2018-03-31T12:04:09.018Z,4912.00
2018-03-31T12:05:09.038Z,5724.00
2018-03-31T12:06:09.059Z,6016.00
2018-03-31T12:07:09.083Z,6140.00
2018-03-31T12:08:09.101Z,6168.00
2018-03-31T12:09:09.122Z,6080.00
2018-03-31T12:10:09.143Z,6000.00
2018-03-31T12:11:09.223Z,6132.00
2018-03-31T12:12:09.188Z,6160.00
2018-03-31T12:13:09.204Z,6172.00
2018-03-31T12:14:09.226Z,6220.00
2018-03-31T12:15:09.298Z,6252.00
2018-03-31T12:16:09.269Z,6136.00
2018-03-31T12:17:09.288Z,5920.00
2018-03-31T12:18:09.309Z,5772.00
2018-03-31T12:19:09.331Z,5740.00
2018-03-31T12:20:09.356Z,5708.00
2018-03-31T12:21:09.372Z,5924.00
2018-03-31T12:22:09.392Z,6024.00
2018-03-31T12:23:09.415Z,6032.00
2018-03-31T12:24:09.436Z,6080.00
2018-03-31T12:25:09.457Z,6076.00
2018-03-31T12:26:09.477Z,6096.00
2018-03-31T12:27:09.533Z,5968.00
2018-03-31T12:28:09.518Z,5896.00
2018-03-31T12:29:09.539Z,5864.00
2018-03-31T12:30:09.560Z,5996.00
2018-03-31T12:31:09.582Z,5904.00
2018-03-31T12:32:09.603Z,5832.00
2018-03-31T12:33:09.623Z,5952.00
2018-03-31T12:34:09.647Z,5912.00
2018-03-31T12:35:09.666Z,5932.00